Main page
METAR-TAF:

METAR-TAF

Airports :

Zahedan Airport

Zahedan, Iran

latitude: 29-28N, longitude: 060-53E, elevation: 1370 m

Current weather observation

The report was made 19 minutes ago, at 04:30 UTC
Calm wind
Temperature 14°C
Humidity 41%
Pressure 1022 hPa
Visibility 10 km or more
no clouds below 1500 m and no cumulonimbus

METAR: OIZH 160430Z 00000KT CAVOK 14/01 Q1022 A3019

Time: 08:19 (04:49 UTC)

Forecast

The report was made 5 hours and 39 minutes ago, at 23:10 UTC
Forecast valid from 16 at 00 UTC to 17 at 06 UTC
Wind 8 kt from the Southwest
Visibility: 7000 m
Temporary
from 16 at 05 UTC to 16 at 12 UTC
Wind 12 kt from the Northeast

TAF: OIZH 152310Z 1600/1706 22008KT 7000 NSC TEMPO 1605/1612 04012KT

Weather observations and forecasts of more than 4000 airports (METAR and TAF reports).

The available stations are represented by yellow and red dots on the map.

Hover mouse over dot to see the name of the station.

Then click to see weather observations and forecasts.

To change the map : click on the green buttons with a black cross to zoom in, on the green button with a dash to zoom out, or on the green arrows for adjacent maps.


METAR-TAF: